Time;durP1;ratioP1;P1;durP2;ratioP2;P2;SDS_P1;SDS_P2;PMS_P1;PMS_P2;Temp;Humidity;BMP_temperature;BMP_pressure;BME280_temperature;BME280_humidity;BME280_pressure;Samples;Min_cycle;Max_cycle;Signal;HPM_P1;HPM_P2
2021/07/09 00:01:41;;;;;;;;;;;22.60;48.50;;;;;;8234053;28;20021;-51
2021/07/09 00:05:41;;;;;;;;;;;22.60;48.50;;;;;;8230994;28;19918;-50
2021/07/09 00:09:46;;;;;;;;;;;22.60;48.50;;;;;;8276160;28;19924;-49
2021/07/09 00:13:47;;;;;;;;;;;22.60;48.50;;;;;;8261452;28;19976;-50
2021/07/09 00:17:47;;;;;;;;;;;22.60;48.60;;;;;;8266384;28;20290;-49
2021/07/09 00:21:48;;;;;;;;;;;22.60;48.50;;;;;;8261715;28;19913;-49
2021/07/09 00:25:49;;;;;;;;;;;22.60;48.60;;;;;;8261187;28;19914;-50
2021/07/09 00:29:50;;;;;;;;;;;22.60;48.60;;;;;;8261415;28;20190;-49
2021/07/09 00:33:50;;;;;;;;;;;22.60;48.60;;;;;;8263544;28;19924;-50
2021/07/09 00:37:51;;;;;;;;;;;22.60;48.60;;;;;;8262467;28;20337;-50
2021/07/09 00:41:51;;;;;;;;;;;22.60;48.70;;;;;;8261927;28;20001;-49
2021/07/09 00:45:51;;;;;;;;;;;22.60;48.70;;;;;;8261652;28;19910;-49
2021/07/09 00:49:52;;;;;;;;;;;22.50;48.70;;;;;;8260857;28;19984;-49
2021/07/09 00:53:52;;;;;;;;;;;22.60;48.80;;;;;;8265661;28;19916;-49
2021/07/09 00:57:53;;;;;;;;;;;22.50;48.70;;;;;;8261269;28;19976;-51
2021/07/09 01:01:56;;;;;;;;;;;22.50;48.80;;;;;;8260733;28;19917;-50
2021/07/09 01:05:56;;;;;;;;;;;22.50;48.80;;;;;;8261341;28;20359;-49
2021/07/09 01:09:57;;;;;;;;;;;22.50;48.80;;;;;;8265269;28;19926;-49
2021/07/09 01:13:57;;;;;;;;;;;22.50;48.80;;;;;;8260374;28;19960;-50
2021/07/09 01:17:58;;;;;;;;;;;22.50;48.90;;;;;;8261115;28;20050;-49
2021/07/09 01:21:58;;;;;;;;;;;22.50;48.90;;;;;;8261027;28;19914;-50
2021/07/09 01:25:59;;;;;;;;;;;22.50;48.80;;;;;;8260345;28;19910;-49
2021/07/09 01:29:59;;;;;;;;;;;22.50;48.90;;;;;;8264880;28;20012;-50
2021/07/09 01:34:00;;;;;;;;;;;22.50;48.90;;;;;;8260564;28;19913;-50
2021/07/09 01:38:03;;;;;;;;;;;22.50;48.90;;;;;;8260165;28;19925;-50
2021/07/09 01:42:04;;;;;;;;;;;22.50;48.90;;;;;;8260708;28;20391;-50
2021/07/09 01:46:04;;;;;;;;;;;22.50;48.90;;;;;;8264367;28;19916;-51
2021/07/09 01:50:05;;;;;;;;;;;22.50;49.00;;;;;;8263452;28;19968;-48
2021/07/09 01:54:05;;;;;;;;;;;22.50;49.00;;;;;;8266023;28;20371;-49
2021/07/09 01:58:06;;;;;;;;;;;22.50;48.90;;;;;;8265506;28;19960;-49
2021/07/09 02:02:06;;;;;;;;;;;22.50;48.90;;;;;;8270522;28;19910;-51
2021/07/09 02:06:07;;;;;;;;;;;22.40;49.40;;;;;;8265723;28;19917;-49
2021/07/09 02:10:08;;;;;;;;;;;22.40;48.80;;;;;;8265149;28;19925;-48
2021/07/09 02:14:09;;;;;;;;;;;22.40;48.90;;;;;;8265686;28;20363;-49
2021/07/09 02:18:10;;;;;;;;;;;22.40;48.80;;;;;;8265310;28;19941;-50
2021/07/09 02:22:11;;;;;;;;;;;22.40;48.90;;;;;;8269387;28;19920;-49
2021/07/09 02:26:12;;;;;;;;;;;22.40;48.80;;;;;;8265164;28;19914;-49
2021/07/09 02:30:13;;;;;;;;;;;22.40;48.90;;;;;;8265641;28;20019;-50
2021/07/09 02:34:14;;;;;;;;;;;22.40;48.90;;;;;;8264512;28;19920;-49
2021/07/09 02:38:14;;;;;;;;;;;22.40;48.90;;;;;;8269385;28;19910;-49
2021/07/09 02:42:15;;;;;;;;;;;22.40;48.80;;;;;;8236644;28;20375;-49
2021/07/09 02:46:15;;;;;;;;;;;22.40;48.90;;;;;;8251849;28;19916;-49
2021/07/09 02:50:17;;;;;;;;;;;22.40;48.90;;;;;;8254605;28;19976;-50
2021/07/09 02:54:17;;;;;;;;;;;22.40;48.80;;;;;;8251324;28;19917;-52
2021/07/09 02:58:18;;;;;;;;;;;22.40;48.90;;;;;;8267044;28;20287;-49
2021/07/09 03:02:18;;;;;;;;;;;22.40;48.80;;;;;;8263197;28;19914;-49
2021/07/09 03:06:19;;;;;;;;;;;22.40;48.80;;;;;;8264212;28;19941;-49
2021/07/09 03:10:20;;;;;;;;;;;22.40;48.80;;;;;;8263187;28;20032;-49
2021/07/09 03:14:20;;;;;;;;;;;22.40;48.80;;;;;;8267978;28;19914;-49
2021/07/09 03:18:21;;;;;;;;;;;22.40;48.80;;;;;;8263635;28;19949;-49
2021/07/09 03:22:21;;;;;;;;;;;22.40;48.80;;;;;;8263107;28;20287;-49
2021/07/09 03:26:21;;;;;;;;;;;22.40;48.90;;;;;;8263352;28;19913;-52
2021/07/09 03:30:22;;;;;;;;;;;22.30;48.80;;;;;;8267386;28;19918;-48
2021/07/09 03:34:22;;;;;;;;;;;22.30;48.80;;;;;;8262108;28;19921;-50
2021/07/09 03:38:23;;;;;;;;;;;22.40;48.90;;;;;;8262950;28;20016;-53
2021/07/09 03:42:23;;;;;;;;;;;22.30;48.80;;;;;;8252861;28;19924;-52
2021/07/09 03:46:24;;;;;;;;;;;22.30;48.80;;;;;;8231173;28;19960;-52
2021/07/09 03:50:24;;;;;;;;;;;22.30;48.80;;;;;;8266670;28;19980;-49
2021/07/09 03:54:25;;;;;;;;;;;22.30;48.80;;;;;;8262553;28;20381;-54
2021/07/09 03:58:26;;;;;;;;;;;22.30;48.80;;;;;;8262012;28;19918;-49
2021/07/09 04:02:26;;;;;;;;;;;22.30;48.90;;;;;;8262512;28;20260;-50
2021/07/09 04:06:27;;;;;;;;;;;22.30;48.90;;;;;;8266855;28;19917;-49
2021/07/09 04:10:27;;;;;;;;;;;22.30;48.90;;;;;;8262175;28;19988;-50
2021/07/09 04:14:29;;;;;;;;;;;22.30;48.80;;;;;;8261853;28;20272;-49
2021/07/09 04:18:29;;;;;;;;;;;22.30;48.90;;;;;;8262028;28;19909;-49
2021/07/09 04:22:30;;;;;;;;;;;22.30;48.80;;;;;;8265718;28;19913;-50
2021/07/09 04:26:30;;;;;;;;;;;22.30;48.80;;;;;;8261978;28;20380;-50
2021/07/09 04:30:31;;;;;;;;;;;22.30;48.80;;;;;;8261693;28;19926;-50
2021/07/09 04:34:31;;;;;;;;;;;22.30;48.80;;;;;;8261027;28;19913;-50
2021/07/09 04:38:32;;;;;;;;;;;22.30;48.80;;;;;;8261552;28;19909;-49
2021/07/09 04:42:32;;;;;;;;;;;22.30;48.80;;;;;;8265780;28;19914;-49
2021/07/09 04:46:33;;;;;;;;;;;22.30;48.80;;;;;;8261309;28;19913;-48
2021/07/09 04:50:33;;;;;;;;;;;22.30;48.80;;;;;;8261468;28;19929;-50
2021/07/09 04:54:34;;;;;;;;;;;22.30;48.80;;;;;;8261193;28;19917;-49
2021/07/09 04:58:34;;;;;;;;;;;22.30;48.70;;;;;;8265059;28;19914;-50
2021/07/09 05:02:38;;;;;;;;;;;22.30;48.80;;;;;;8261117;28;19913;-50
2021/07/09 05:06:39;;;;;;;;;;;22.30;48.70;;;;;;8261021;28;19914;-48
2021/07/09 05:10:39;;;;;;;;;;;22.30;48.80;;;;;;8260606;28;19944;-50
2021/07/09 05:14:39;;;;;;;;;;;22.20;48.70;;;;;;8265248;28;19913;-49
2021/07/09 05:18:40;;;;;;;;;;;22.30;48.80;;;;;;8262040;28;19917;-50
2021/07/09 05:22:41;;;;;;;;;;;22.30;48.70;;;;;;8260443;28;19918;-50
2021/07/09 05:26:42;;;;;;;;;;;22.30;48.80;;;;;;8266354;28;19953;-49
2021/07/09 05:30:44;;;;;;;;;;;22.30;48.70;;;;;;8266963;28;19972;-49
2021/07/09 05:34:45;;;;;;;;;;;22.20;48.70;;;;;;8270558;28;20360;-49
2021/07/09 05:38:45;;;;;;;;;;;22.20;48.70;;;;;;8266478;28;19998;-48
2021/07/09 05:42:46;;;;;;;;;;;22.20;48.70;;;;;;8266207;28;19920;-49
2021/07/09 05:46:49;;;;;;;;;;;22.20;48.70;;;;;;8265628;28;19920;-48
2021/07/09 05:50:50;;;;;;;;;;;22.20;48.70;;;;;;8270771;28;20327;-49
2021/07/09 05:54:50;;;;;;;;;;;22.20;48.60;;;;;;8266413;28;19972;-48
2021/07/09 05:58:51;;;;;;;;;;;22.20;48.60;;;;;;8266020;28;19988;-51
2021/07/09 06:02:51;;;;;;;;;;;22.30;48.70;;;;;;8266308;28;19925;-49
2021/07/09 06:06:51;;;;;;;;;;;22.30;48.70;;;;;;8265680;28;19914;-49
2021/07/09 06:10:52;;;;;;;;;;;22.30;48.60;;;;;;8269439;28;19921;-48
2021/07/09 06:14:53;;;;;;;;;;;22.30;48.60;;;;;;8265774;28;19914;-48
2021/07/09 06:18:53;;;;;;;;;;;22.30;48.60;;;;;;8265421;28;19909;-49
2021/07/09 06:22:54;;;;;;;;;;;22.30;48.60;;;;;;8264926;28;19914;-50
2021/07/09 06:26:55;;;;;;;;;;;22.30;48.60;;;;;;8269577;28;19957;-47
2021/07/09 06:30:55;;;;;;;;;;;22.30;48.60;;;;;;8265209;28;20265;-49
2021/07/09 06:34:55;;;;;;;;;;;22.30;48.60;;;;;;8263281;28;19914;-50
2021/07/09 06:38:56;;;;;;;;;;;22.30;48.60;;;;;;8264746;28;20004;-49
2021/07/09 06:42:56;;;;;;;;;;;22.30;49.10;;;;;;8269062;28;20383;-48
2021/07/09 06:46:57;;;;;;;;;;;22.30;48.60;;;;;;8264061;28;19985;-49
2021/07/09 06:50:57;;;;;;;;;;;22.30;48.60;;;;;;8264310;28;19914;-49
2021/07/09 06:54:58;;;;;;;;;;;22.30;48.60;;;;;;8263921;28;19910;-48
2021/07/09 06:58:59;;;;;;;;;;;22.30;48.50;;;;;;8263277;28;19914;-50
2021/07/09 07:02:59;;;;;;;;;;;22.30;48.50;;;;;;8268506;28;20376;-50
2021/07/09 07:06:59;;;;;;;;;;;22.30;48.50;;;;;;8263865;28;19925;-50
2021/07/09 07:11:00;;;;;;;;;;;22.30;48.50;;;;;;8263183;28;20334;-51
2021/07/09 07:15:02;;;;;;;;;;;22.30;48.50;;;;;;8263811;28;19925;-49
2021/07/09 07:19:02;;;;;;;;;;;22.30;48.50;;;;;;8267947;28;20330;-52
2021/07/09 07:23:03;;;;;;;;;;;22.30;48.60;;;;;;8262993;28;19918;-53
2021/07/09 07:27:04;;;;;;;;;;;22.30;48.50;;;;;;8263147;28;20382;-51
2021/07/09 07:31:04;;;;;;;;;;;22.30;48.50;;;;;;8262655;28;19936;-50
2021/07/09 07:35:05;;;;;;;;;;;22.30;48.50;;;;;;8267308;28;19933;-50
2021/07/09 07:39:05;;;;;;;;;;;22.30;48.50;;;;;;8264200;28;19920;-53
2021/07/09 07:43:06;;;;;;;;;;;22.30;48.50;;;;;;8262226;28;19913;-50
2021/07/09 07:47:07;;;;;;;;;;;22.30;48.50;;;;;;8262177;28;20044;-50
2021/07/09 07:51:08;;;;;;;;;;;22.30;48.40;;;;;;8262477;28;19914;-50
2021/07/09 07:55:09;;;;;;;;;;;22.40;48.50;;;;;;8266230;28;20351;-50
2021/07/09 07:59:09;;;;;;;;;;;22.30;48.40;;;;;;8262254;28;20338;-50
2021/07/09 08:03:09;;;;;;;;;;;22.40;48.40;;;;;;8262415;28;19925;-51
2021/07/09 08:07:10;;;;;;;;;;;22.40;48.40;;;;;;8261623;28;19922;-51
2021/07/09 08:11:11;;;;;;;;;;;22.40;48.40;;;;;;8266421;28;19917;-51
2021/07/09 08:15:11;;;;;;;;;;;22.40;48.40;;;;;;8261972;28;19918;-50
2021/07/09 08:19:12;;;;;;;;;;;22.40;48.40;;;;;;8261978;28;19914;-51
2021/07/09 08:23:12;;;;;;;;;;;22.40;48.40;;;;;;8262113;28;19914;-51
2021/07/09 08:27:13;;;;;;;;;;;22.40;48.40;;;;;;8262239;28;19917;-51
2021/07/09 08:31:13;;;;;;;;;;;22.50;48.40;;;;;;8265536;28;20385;-51
2021/07/09 08:35:14;;;;;;;;;;;22.50;48.40;;;;;;8261933;28;19914;-50
2021/07/09 08:39:15;;;;;;;;;;;22.50;48.30;;;;;;8261467;28;19913;-50
2021/07/09 08:43:16;;;;;;;;;;;22.50;48.30;;;;;;8260950;28;19914;-50
2021/07/09 08:47:16;;;;;;;;;;;22.50;48.30;;;;;;8265975;28;19947;-50
2021/07/09 08:51:17;;;;;;;;;;;22.50;48.30;;;;;;8261398;28;19997;-50
2021/07/09 08:55:18;;;;;;;;;;;22.50;48.30;;;;;;8260856;28;19964;-50
2021/07/09 08:59:19;;;;;;;;;;;22.60;48.30;;;;;;8263475;28;20000;-51
2021/07/09 09:03:22;;;;;;;;;;;22.60;48.30;;;;;;8272149;28;20005;-51
2021/07/09 09:07:28;;;;;;;;;;;22.60;48.30;;;;;;8267214;28;21849;-50
2021/07/09 09:11:29;;;;;;;;;;;22.60;48.30;;;;;;8267337;28;20364;-50
2021/07/09 09:15:29;;;;;;;;;;;22.60;48.30;;;;;;8267551;28;19909;-49
2021/07/09 09:19:30;;;;;;;;;;;22.60;48.30;;;;;;8266682;28;19960;-50
2021/07/09 09:23:32;;;;;;;;;;;22.70;48.30;;;;;;8271473;28;19917;-47
2021/07/09 09:27:32;;;;;;;;;;;22.70;48.30;;;;;;8267185;28;19957;-47
2021/07/09 09:31:34;;;;;;;;;;;22.70;48.20;;;;;;8266329;28;19920;-48
2021/07/09 09:35:40;;;;;;;;;;;22.70;48.20;;;;;;8267033;28;19917;-48
2021/07/09 09:39:45;;;;;;;;;;;22.70;48.20;;;;;;8274648;28;20009;-49
2021/07/09 09:43:46;;;;;;;;;;;22.80;48.20;;;;;;8266209;28;19914;-48
2021/07/09 09:47:47;;;;;;;;;;;22.80;48.10;;;;;;8266513;28;20287;-49
2021/07/09 09:51:50;;;;;;;;;;;22.80;48.10;;;;;;8266442;28;19910;-48
2021/07/09 09:55:51;;;;;;;;;;;22.80;48.10;;;;;;8265627;28;20414;-50
2021/07/09 09:59:51;;;;;;;;;;;22.80;48.00;;;;;;8270389;28;19952;-50
2021/07/09 10:03:52;;;;;;;;;;;22.80;48.00;;;;;;8266338;28;19925;-50
2021/07/09 10:07:52;;;;;;;;;;;22.90;48.10;;;;;;8265221;28;19922;-51
2021/07/09 10:11:54;;;;;;;;;;;22.90;48.00;;;;;;8265269;28;20370;-50
2021/07/09 10:15:55;;;;;;;;;;;23.00;48.00;;;;;;8269875;28;19964;-50
2021/07/09 10:19:58;;;;;;;;;;;23.00;48.00;;;;;;8264987;28;19913;-47
2021/07/09 10:23:58;;;;;;;;;;;23.00;48.00;;;;;;8265569;28;20001;-49
2021/07/09 10:27:59;;;;;;;;;;;23.00;47.90;;;;;;8265076;28;19928;-50
2021/07/09 10:32:01;;;;;;;;;;;23.00;47.90;;;;;;8265736;28;19916;-49
2021/07/09 10:36:06;;;;;;;;;;;23.00;47.90;;;;;;8268405;28;19913;-48
2021/07/09 10:40:08;;;;;;;;;;;23.00;47.80;;;;;;8264645;28;20283;-50
2021/07/09 10:44:14;;;;;;;;;;;23.10;47.90;;;;;;8265060;28;20000;-49
2021/07/09 10:48:15;;;;;;;;;;;23.10;47.80;;;;;;8264620;28;20024;-49
2021/07/09 10:52:48;;;;;;;;;;;23.10;47.80;;;;;;8268498;28;19916;-48
2021/07/09 10:57:08;;;;;;;;;;;23.10;47.60;;;;;;8223369;28;19937;-50
2021/07/09 11:01:10;;;;;;;;;;;23.20;47.70;;;;;;8257362;28;19913;-48
2021/07/09 11:05:30;;;;;;;;;;;23.20;47.60;;;;;;8264148;28;19918;-48
2021/07/09 11:09:37;;;;;;;;;;;23.20;47.60;;;;;;8264094;28;19929;-49
2021/07/09 11:13:41;;;;;;;;;;;23.30;47.60;;;;;;8264425;28;20409;-49
2021/07/09 11:17:41;;;;;;;;;;;23.20;47.50;;;;;;8236000;28;19918;-49
2021/07/09 11:21:46;;;;;;;;;;;23.30;47.60;;;;;;8254577;28;19973;-49
2021/07/09 11:25:47;;;;;;;;;;;23.30;47.50;;;;;;8262991;28;19914;-49
2021/07/09 11:29:47;;;;;;;;;;;23.30;47.60;;;;;;8263355;28;19917;-52
2021/07/09 11:33:58;;;;;;;;;;;23.20;47.50;;;;;;8267549;28;19930;-49
2021/07/09 11:37:59;;;;;;;;;;;23.20;47.50;;;;;;8262458;28;19920;-51
2021/07/09 11:42:01;;;;;;;;;;;23.20;47.60;;;;;;8263022;28;19913;-50
2021/07/09 11:46:06;;;;;;;;;;;23.20;47.60;;;;;;8262734;28;19913;-50
2021/07/09 11:50:10;;;;;;;;;;;23.20;47.60;;;;;;8261820;28;19925;-47
2021/07/09 11:54:11;;;;;;;;;;;23.20;47.60;;;;;;8267030;28;19914;-48
2021/07/09 11:58:11;;;;;;;;;;;23.20;47.60;;;;;;8261712;28;19936;-50
2021/07/09 12:02:12;;;;;;;;;;;23.20;47.60;;;;;;8262189;28;20386;-48
2021/07/09 12:06:21;;;;;;;;;;;23.20;47.60;;;;;;8262032;28;19917;-47
2021/07/09 12:10:23;;;;;;;;;;;23.20;47.60;;;;;;8266113;28;19926;-48
2021/07/09 12:14:24;;;;;;;;;;;23.20;47.50;;;;;;8261717;28;19924;-49
2021/07/09 12:18:24;;;;;;;;;;;23.30;47.60;;;;;;8262071;28;19914;-49
2021/07/09 12:22:28;;;;;;;;;;;23.20;47.60;;;;;;8261456;28;20382;-49
2021/07/09 12:26:29;;;;;;;;;;;23.20;47.50;;;;;;8262103;28;19925;-50
2021/07/09 12:30:32;;;;;;;;;;;23.20;47.50;;;;;;8265879;28;19941;-49
2021/07/09 12:34:32;;;;;;;;;;;23.30;47.60;;;;;;8260980;28;19960;-48
2021/07/09 12:38:34;;;;;;;;;;;23.30;47.60;;;;;;8263530;28;19914;-47
2021/07/09 12:42:34;;;;;;;;;;;23.30;47.50;;;;;;8258721;28;19920;-48
2021/07/09 12:46:35;;;;;;;;;;;23.20;47.50;;;;;;8260532;28;20260;-45
2021/07/09 12:50:39;;;;;;;;;;;23.30;47.50;;;;;;8252955;28;20348;-50
2021/07/09 12:54:39;;;;;;;;;;;23.30;47.50;;;;;;8255993;28;19914;-52
2021/07/09 12:58:40;;;;;;;;;;;23.30;47.60;;;;;;8251117;28;19925;-49
2021/07/09 13:02:40;;;;;;;;;;;23.30;47.50;;;;;;8267986;28;20283;-51
2021/07/09 13:06:41;;;;;;;;;;;23.20;47.40;;;;;;8251481;28;20450;-48
2021/07/09 13:10:41;;;;;;;;;;;23.30;47.50;;;;;;8258199;28;19933;-48
2021/07/09 13:14:54;;;;;;;;;;;23.30;47.40;;;;;;8274176;28;20016;-47
2021/07/09 13:19:01;;;;;;;;;;;23.30;47.50;;;;;;8255345;28;19914;-48
2021/07/09 13:23:12;;;;;;;;;;;23.30;47.40;;;;;;8255124;28;19914;-51
2021/07/09 13:27:18;;;;;;;;;;;23.30;47.40;;;;;;8260602;28;20048;-50
2021/07/09 13:31:18;;;;;;;;;;;23.30;47.40;;;;;;8265178;28;20008;-49
2021/07/09 13:35:19;;;;;;;;;;;23.30;47.40;;;;;;8259737;28;20302;-50
2021/07/09 13:39:20;;;;;;;;;;;23.30;47.40;;;;;;8260745;28;19909;-50
2021/07/09 13:43:20;;;;;;;;;;;23.30;47.40;;;;;;8264493;28;19925;-51
2021/07/09 13:47:21;;;;;;;;;;;23.30;47.40;;;;;;8275633;28;19921;-51
2021/07/09 13:51:21;;;;;;;;;;;23.40;47.40;;;;;;8266255;28;19918;-49
2021/07/09 13:55:22;;;;;;;;;;;23.30;47.40;;;;;;8265107;28;19925;-49
2021/07/09 13:59:22;;;;;;;;;;;23.40;47.40;;;;;;8269658;28;20000;-48
2021/07/09 14:03:24;;;;;;;;;;;23.50;47.40;;;;;;8265827;28;19968;-47
2021/07/09 14:07:24;;;;;;;;;;;23.50;47.30;;;;;;8241043;28;19976;-50
2021/07/09 14:11:25;;;;;;;;;;;23.50;47.20;;;;;;8254750;28;20460;-50
2021/07/09 14:15:26;;;;;;;;;;;23.50;47.20;;;;;;8256589;28;19910;-48
2021/07/09 14:19:27;;;;;;;;;;;23.50;47.10;;;;;;8264917;28;19937;-52
2021/07/09 14:23:28;;;;;;;;;;;23.50;47.30;;;;;;8264120;28;19968;-52
2021/07/09 14:27:28;;;;;;;;;;;23.50;46.90;;;;;;8255136;28;20414;-49
2021/07/09 14:31:28;;;;;;;;;;;23.60;47.10;;;;;;8261746;28;19936;-49
2021/07/09 14:35:29;;;;;;;;;;;23.60;46.90;;;;;;8277306;28;20417;-52
2021/07/09 14:39:29;;;;;;;;;;;23.60;46.60;;;;;;8263276;28;19929;-48
2021/07/09 14:43:30;;;;;;;;;;;23.60;46.60;;;;;;8246729;28;19993;-51
2021/07/09 14:47:30;;;;;;;;;;;23.60;46.50;;;;;;8237196;28;20387;-52
2021/07/09 14:51:31;;;;;;;;;;;23.60;46.90;;;;;;8267586;28;19917;-50
2021/07/09 14:55:31;;;;;;;;;;;23.70;46.90;;;;;;8263281;28;19914;-47
2021/07/09 14:59:32;;;;;;;;;;;23.70;46.40;;;;;;8271536;28;20340;-51
2021/07/09 15:03:32;;;;;;;;;;;23.70;46.40;;;;;;8268308;28;20008;-49
2021/07/09 15:07:33;;;;;;;;;;;23.70;46.40;;;;;;8267803;28;19924;-48
2021/07/09 15:11:33;;;;;;;;;;;23.70;46.80;;;;;;8263978;28;19914;-51
2021/07/09 15:15:34;;;;;;;;;;;23.70;46.50;;;;;;8260161;28;20433;-47
2021/07/09 15:19:34;;;;;;;;;;;23.70;46.70;;;;;;8264145;28;19933;-51
2021/07/09 15:23:35;;;;;;;;;;;23.80;46.60;;;;;;8274713;28;19925;-50
2021/07/09 15:27:36;;;;;;;;;;;23.80;44.90;;;;;;8263797;28;19967;-47
2021/07/09 15:31:36;;;;;;;;;;;23.80;45.70;;;;;;8259012;28;19914;-48
2021/07/09 15:35:37;;;;;;;;;;;23.80;45.50;;;;;;8260403;28;19920;-49
2021/07/09 15:39:37;;;;;;;;;;;23.80;45.20;;;;;;8262372;28;19940;-48
2021/07/09 15:43:38;;;;;;;;;;;23.80;45.10;;;;;;8266756;28;20352;-49
2021/07/09 15:47:39;;;;;;;;;;;23.80;44.90;;;;;;8262784;28;19921;-49
2021/07/09 15:51:39;;;;;;;;;;;23.80;44.90;;;;;;8262677;28;19936;-48
2021/07/09 15:55:40;;;;;;;;;;;23.80;45.20;;;;;;8262157;28;19917;-51
2021/07/09 15:59:40;;;;;;;;;;;23.80;45.40;;;;;;8263184;28;19920;-48
2021/07/09 16:03:41;;;;;;;;;;;23.80;45.30;;;;;;8265871;28;19917;-49
2021/07/09 16:07:41;;;;;;;;;;;23.80;45.30;;;;;;8261206;28;19977;-48
2021/07/09 16:11:42;;;;;;;;;;;23.80;45.30;;;;;;8261868;28;19941;-47
2021/07/09 16:15:42;;;;;;;;;;;23.80;45.10;;;;;;8262132;28;20406;-49
2021/07/09 16:19:43;;;;;;;;;;;23.80;45.40;;;;;;8265931;28;19910;-49
2021/07/09 16:23:44;;;;;;;;;;;23.80;45.40;;;;;;8261793;28;20272;-48
2021/07/09 16:27:44;;;;;;;;;;;23.80;45.40;;;;;;8262065;28;20393;-48
2021/07/09 16:31:44;;;;;;;;;;;23.80;45.50;;;;;;8276433;28;19914;-47
2021/07/09 16:35:45;;;;;;;;;;;23.80;45.70;;;;;;8266078;28;19910;-47
2021/07/09 16:39:46;;;;;;;;;;;23.80;45.80;;;;;;8261545;28;19968;-50
2021/07/09 16:43:47;;;;;;;;;;;23.80;45.70;;;;;;8261266;28;19914;-48
2021/07/09 16:47:47;;;;;;;;;;;23.80;45.90;;;;;;8261075;28;19922;-49
2021/07/09 16:51:47;;;;;;;;;;;23.80;46.00;;;;;;8261395;28;20429;-49
2021/07/09 16:55:48;;;;;;;;;;;23.80;46.00;;;;;;8265666;28;19917;-49
2021/07/09 16:59:48;;;;;;;;;;;23.80;45.90;;;;;;8261368;28;20279;-49
2021/07/09 17:03:49;;;;;;;;;;;23.80;46.10;;;;;;8260875;28;20008;-49
2021/07/09 17:07:49;;;;;;;;;;;23.80;46.20;;;;;;8260707;28;20365;-47
2021/07/09 17:11:50;;;;;;;;;;;23.80;45.80;;;;;;8265496;28;20270;-49
2021/07/09 17:15:50;;;;;;;;;;;23.80;46.00;;;;;;8260987;28;20338;-47
2021/07/09 17:19:51;;;;;;;;;;;23.80;46.00;;;;;;8261644;28;20319;-48
2021/07/09 17:23:51;;;;;;;;;;;23.80;46.20;;;;;;8267168;28;19949;-49
2021/07/09 17:27:52;;;;;;;;;;;23.80;46.10;;;;;;8271313;28;19921;-49
2021/07/09 17:31:52;;;;;;;;;;;23.80;46.60;;;;;;8266436;28;19955;-49
2021/07/09 17:35:54;;;;;;;;;;;23.80;46.50;;;;;;8266694;28;20363;-49
2021/07/09 17:39:54;;;;;;;;;;;23.80;46.70;;;;;;8265176;28;19914;-49
2021/07/09 17:43:55;;;;;;;;;;;23.80;46.80;;;;;;8264216;28;19933;-48
2021/07/09 17:47:55;;;;;;;;;;;23.70;46.80;;;;;;8238506;28;19922;-49
2021/07/09 17:51:56;;;;;;;;;;;23.80;46.80;;;;;;8259318;28;19921;-47
2021/07/09 17:55:56;;;;;;;;;;;23.70;47.00;;;;;;8265834;28;19914;-47
2021/07/09 18:00:00;;;;;;;;;;;23.70;47.00;;;;;;8265619;28;19913;-47
2021/07/09 18:04:00;;;;;;;;;;;23.70;47.10;;;;;;8270876;28;19918;-48
2021/07/09 18:08:00;;;;;;;;;;;23.70;47.10;;;;;;8265533;28;20362;-48
2021/07/09 18:12:01;;;;;;;;;;;23.70;47.20;;;;;;8247328;28;19921;-48
2021/07/09 18:16:01;;;;;;;;;;;23.70;47.20;;;;;;8243296;28;19918;-47
2021/07/09 18:20:06;;;;;;;;;;;23.70;47.30;;;;;;8267133;28;19918;-48
2021/07/09 18:24:06;;;;;;;;;;;23.70;47.30;;;;;;8268450;28;19916;-48
2021/07/09 18:28:07;;;;;;;;;;;23.70;47.30;;;;;;8264825;28;19929;-51
2021/07/09 18:32:07;;;;;;;;;;;23.70;47.30;;;;;;8264886;28;19960;-51
2021/07/09 18:36:08;;;;;;;;;;;23.70;47.20;;;;;;8265216;28;20072;-48
2021/07/09 18:40:09;;;;;;;;;;;23.70;47.30;;;;;;8268984;28;19910;-48
2021/07/09 18:44:09;;;;;;;;;;;23.70;47.30;;;;;;8265251;28;19921;-47
2021/07/09 18:48:12;;;;;;;;;;;23.70;47.30;;;;;;8264672;28;19922;-47
2021/07/09 18:52:12;;;;;;;;;;;23.70;47.30;;;;;;8264305;28;19917;-47
2021/07/09 18:56:13;;;;;;;;;;;23.70;47.40;;;;;;8268748;28;19952;-47
2021/07/09 19:00:14;;;;;;;;;;;23.70;47.40;;;;;;8264203;28;19941;-49
2021/07/09 19:04:14;;;;;;;;;;;23.60;47.40;;;;;;8243734;28;20282;-47
2021/07/09 19:08:15;;;;;;;;;;;23.60;47.40;;;;;;8243458;28;19922;-49
2021/07/09 19:12:15;;;;;;;;;;;23.70;47.40;;;;;;8264025;28;20314;-48
2021/07/09 19:16:16;;;;;;;;;;;23.60;47.30;;;;;;8267832;28;19909;-47
2021/07/09 19:20:18;;;;;;;;;;;23.60;47.40;;;;;;8263829;28;19924;-47
2021/07/09 19:24:18;;;;;;;;;;;23.60;47.30;;;;;;8263911;28;19960;-47
2021/07/09 19:28:19;;;;;;;;;;;23.60;47.30;;;;;;8263046;28;19922;-46
2021/07/09 19:32:19;;;;;;;;;;;23.60;47.20;;;;;;8267678;28;19922;-48
2021/07/09 19:36:20;;;;;;;;;;;23.60;47.20;;;;;;8263163;28;19914;-47
2021/07/09 19:40:21;;;;;;;;;;;23.60;47.10;;;;;;8262540;28;19917;-47
2021/07/09 19:44:22;;;;;;;;;;;23.60;47.10;;;;;;8262531;28;19910;-48
2021/07/09 19:48:24;;;;;;;;;;;23.60;47.10;;;;;;8267165;28;19925;-48
2021/07/09 19:52:25;;;;;;;;;;;23.60;47.70;;;;;;8262261;28;19921;-50
2021/07/09 19:56:25;;;;;;;;;;;23.60;47.20;;;;;;8262483;28;19914;-48
2021/07/09 20:00:26;;;;;;;;;;;23.60;47.10;;;;;;8262386;28;19909;-48
2021/07/09 20:04:26;;;;;;;;;;;23.60;47.20;;;;;;8262211;28;19926;-48
2021/07/09 20:08:27;;;;;;;;;;;23.60;47.10;;;;;;8266525;28;20363;-47
2021/07/09 20:12:29;;;;;;;;;;;23.60;47.10;;;;;;8277133;28;19914;-48
2021/07/09 20:16:29;;;;;;;;;;;23.60;47.10;;;;;;8261809;28;20351;-48
2021/07/09 20:20:30;;;;;;;;;;;23.60;47.10;;;;;;8262147;28;19909;-50
2021/07/09 20:24:30;;;;;;;;;;;23.60;47.10;;;;;;8266080;28;19918;-48
2021/07/09 20:28:31;;;;;;;;;;;23.60;47.10;;;;;;8261241;28;19961;-47
2021/07/09 20:32:31;;;;;;;;;;;23.60;47.00;;;;;;8261916;28;20008;-47
2021/07/09 20:36:32;;;;;;;;;;;23.60;47.00;;;;;;8261667;28;19917;-48
2021/07/09 20:40:33;;;;;;;;;;;23.60;47.00;;;;;;8261299;28;19996;-51
2021/07/09 20:44:33;;;;;;;;;;;23.60;47.00;;;;;;8265622;28;19917;-47
2021/07/09 20:48:33;;;;;;;;;;;23.60;47.10;;;;;;8238710;28;20284;-48
2021/07/09 20:52:34;;;;;;;;;;;23.50;47.00;;;;;;8242838;28;20318;-47
2021/07/09 20:56:35;;;;;;;;;;;23.60;46.90;;;;;;8265712;28;19910;-49
2021/07/09 21:00:35;;;;;;;;;;;23.50;47.00;;;;;;8272361;28;19918;-47
2021/07/09 21:04:36;;;;;;;;;;;23.60;47.00;;;;;;8267795;28;19940;-47
2021/07/09 21:08:37;;;;;;;;;;;23.50;46.90;;;;;;8267597;28;19945;-49
2021/07/09 21:12:38;;;;;;;;;;;23.60;46.90;;;;;;8260663;28;20052;-51
2021/07/09 21:16:38;;;;;;;;;;;23.60;46.90;;;;;;8239204;28;19914;-48
2021/07/09 21:20:39;;;;;;;;;;;23.50;46.90;;;;;;8265864;28;19960;-52
2021/07/09 21:24:39;;;;;;;;;;;23.50;46.90;;;;;;8281947;28;19913;-48
2021/07/09 21:28:40;;;;;;;;;;;23.50;46.90;;;;;;8267001;28;20430;-50
2021/07/09 21:32:40;;;;;;;;;;;23.50;46.90;;;;;;8267079;28;19996;-50
2021/07/09 21:36:40;;;;;;;;;;;23.50;46.90;;;;;;8271414;28;19940;-48
2021/07/09 21:40:42;;;;;;;;;;;23.50;46.90;;;;;;8266333;28;19917;-49
2021/07/09 21:44:43;;;;;;;;;;;23.50;46.90;;;;;;8266770;28;20367;-48
2021/07/09 21:48:43;;;;;;;;;;;23.50;46.90;;;;;;8266503;28;19925;-50
2021/07/09 21:52:44;;;;;;;;;;;23.50;46.90;;;;;;8270533;28;20375;-50
2021/07/09 21:56:45;;;;;;;;;;;23.50;46.90;;;;;;8266580;28;19920;-52
2021/07/09 22:00:45;;;;;;;;;;;23.50;46.80;;;;;;8264750;28;19917;-50
2021/07/09 22:04:45;;;;;;;;;;;23.50;46.80;;;;;;8257661;28;19925;-48
2021/07/09 22:08:46;;;;;;;;;;;23.50;46.80;;;;;;8238480;28;20295;-51
2021/07/09 22:12:46;;;;;;;;;;;23.50;46.90;;;;;;8265534;28;20302;-48
2021/07/09 22:16:47;;;;;;;;;;;23.50;46.80;;;;;;8265265;28;20305;-48
2021/07/09 22:20:49;;;;;;;;;;;23.50;46.80;;;;;;8265651;28;20012;-50
2021/07/09 22:24:49;;;;;;;;;;;23.50;46.80;;;;;;8265561;28;19917;-48
2021/07/09 22:28:50;;;;;;;;;;;23.50;46.80;;;;;;8269205;28;19960;-48
2021/07/09 22:32:51;;;;;;;;;;;23.50;46.80;;;;;;8265287;28;19921;-52
2021/07/09 22:36:52;;;;;;;;;;;23.50;46.90;;;;;;8265137;28;20335;-48
2021/07/09 22:40:52;;;;;;;;;;;23.40;46.80;;;;;;8257816;28;19918;-48
2021/07/09 22:44:53;;;;;;;;;;;23.40;46.80;;;;;;8251913;28;19914;-50
2021/07/09 22:48:53;;;;;;;;;;;23.40;46.80;;;;;;8264270;28;19952;-48
2021/07/09 22:52:55;;;;;;;;;;;23.40;46.80;;;;;;8264580;28;19921;-50
2021/07/09 22:56:55;;;;;;;;;;;23.40;46.80;;;;;;8264653;28;20300;-50
2021/07/09 23:00:56;;;;;;;;;;;23.40;46.80;;;;;;8265472;28;19914;-50
2021/07/09 23:04:56;;;;;;;;;;;23.40;46.90;;;;;;8266613;28;19924;-51
2021/07/09 23:09:00;;;;;;;;;;;23.40;46.80;;;;;;8264090;28;19984;-51
2021/07/09 23:13:00;;;;;;;;;;;23.30;46.80;;;;;;8263972;28;20267;-48
2021/07/09 23:17:00;;;;;;;;;;;23.30;46.80;;;;;;8262522;28;19913;-50
2021/07/09 23:21:01;;;;;;;;;;;23.30;46.80;;;;;;8268300;28;19913;-51